Meteorological Aerodrome Report (METAR)

METAR

METAR for:NVSC (Vanua Lava/Sola Airport)
Text:NVSC 172100Z 11005KT 9999 BKN020 27/18 Q1014 RMK NIL
Temperature: 27.0°C ( 81°F)
Dewpoint: 18.0°C ( 64°F) [RH = 58%]
Pressure (altimeter):29.94 inches Hg (1014.0 mb)
Winds:from the ESE (110 degrees) at 6 MPH (5 knots; 2.6 m/s)
Visibility:6 or more sm (10+ km)
Ceiling:2000 feet AGL
Clouds: broken clouds at 2000 feet AGL

METAR

METAR for:NVSG (Ambae/Longana Airport)
Text:NVSG 172100Z 10008KT 9999 SCT020 BKN040 26/21 Q1015 RMK NIL
Temperature: 26.0°C ( 79°F)
Dewpoint: 21.0°C ( 70°F) [RH = 74%]
Pressure (altimeter):29.97 inches Hg (1015.0 mb)
Winds:from the E (100 degrees) at 9 MPH (8 knots; 4.1 m/s)
Visibility:6 or more sm (10+ km)
Ceiling:4000 feet AGL
Clouds: scattered clouds at 2000 feet AGL, broken clouds at 4000 feet AGL

METAR

METAR for:NVSS (Santo/Pekoa International Airport)
Text:NVSS 172300Z 10009KT //// // NCD 27/16 Q1015 RMK NIL
Temperature: 27.0°C ( 81°F)
Dewpoint: 16.0°C ( 61°F) [RH = 51%]
Pressure (altimeter):29.97 inches Hg (1015.0 mb)
Winds:from the E (100 degrees) at 10 MPH (9 knots; 4.6 m/s)
Ceiling:at least 12,000 feet AGL
Clouds:sky clear below 12,000 feet AGL

METAR

METAR for:NVSL (Malekula/Lamap Airport)
Text:NVSL 172100Z 11007KT 9999 BKN035 25/18 Q1016 RMK NIL
Temperature: 25.0°C ( 77°F)
Dewpoint: 18.0°C ( 64°F) [RH = 65%]
Pressure (altimeter):30.00 inches Hg (1016.0 mb)
Winds:from the ESE (110 degrees) at 8 MPH (7 knots; 3.6 m/s)
Visibility:6 or more sm (10+ km)
Ceiling:3500 feet AGL
Clouds: broken clouds at 3500 feet AGL

METAR

METAR for:NVVV (Efate/Bauerfield International Airport)
Text:NVVV 172300Z 11009KT 9999 SCT020 BKN120 25/15 Q1016 RMK NIL
Temperature: 25.0°C ( 77°F)
Dewpoint: 15.0°C ( 59°F) [RH = 54%]
Pressure (altimeter):30.00 inches Hg (1016.0 mb)
Winds:from the ESE (110 degrees) at 10 MPH (9 knots; 4.6 m/s)
Visibility:6 or more sm (10+ km)
Ceiling:12000 feet AGL
Clouds: scattered clouds at 2000 feet AGL, broken clouds at 12000 feet AGL

METAR

METAR for:NVVW (Tanna/WhiteGrass International Airport)
Text:NVVW 172300Z 09005KT 9999 FEW025 25/17 Q1016 RMK NIL
Temperature: 25.0°C ( 77°F)
Dewpoint: 17.0°C ( 63°F) [RH = 61%]
Pressure (altimeter):30.00 inches Hg (1016.0 mb)
Winds:from the E (90 degrees) at 6 MPH (5 knots; 2.6 m/s)
Visibility:6 or more sm (10+ km)
Ceiling:at least 12,000 feet AGL
Clouds: few clouds at 2500 feet AGL

METAR

METAR for:NVVA (Aneityum/Anelcahuat Airport)
Text:NVVA 172100Z VRB03KT 9999 FEW025 21/18 Q1017 RMK NIL
Temperature: 21.0°C ( 70°F)
Dewpoint: 18.0°C ( 64°F) [RH = 83%]
Pressure (altimeter):30.03 inches Hg (1017.0 mb)
Winds:variable direction winds at 3 MPH (3 knots; 1.5 m/s)
Visibility:6 or more sm (10+ km)
Ceiling:at least 12,000 feet AGL
Clouds: few clouds at 2500 feet AGL

METAR

ADDS METAR Data INFO
IDs: Format: Raw Decoded Include TAF

Data at: 2310 UTC 17 Aug 2017

NVSC 172100Z 11005KT 9999 BKN020 27/18 Q1014 RMK NIL

NVSG 172100Z 10008KT 9999 SCT020 BKN040 26/21 Q1015 RMK NIL

NVSS 172300Z 10009KT //// // NCD 27/16 Q1015 RMK NIL

NVSL 172100Z 11007KT 9999 BKN035 25/18 Q1016 RMK NIL

NVVV 172300Z 11009KT 9999 SCT020 BKN120 25/15 Q1016 RMK NIL

NVVW 172300Z 09005KT 9999 FEW025 25/17 Q1016 RMK NIL

NVVA 172100Z VRB03KT 9999 FEW025 21/18 Q1017 RMK NIL